sensor_id;sensor_type;location;lat;lon;timestamp;temperature;humidity
14875;DHT22;7529;48.170;17.138;2022-07-29T00:03:35;21.30;46.20
14875;DHT22;7529;48.170;17.138;2022-07-29T00:07:47;21.20;46.40
14875;DHT22;7529;48.170;17.138;2022-07-29T00:12:01;21.10;46.60
14875;DHT22;7529;48.170;17.138;2022-07-29T00:16:12;21.10;46.80
14875;DHT22;7529;48.170;17.138;2022-07-29T00:20:24;21.10;46.70
14875;DHT22;7529;48.170;17.138;2022-07-29T00:24:35;21.10;46.70
14875;DHT22;7529;48.170;17.138;2022-07-29T00:28:47;21.10;46.80
14875;DHT22;7529;48.170;17.138;2022-07-29T00:32:58;21.00;47.00
14875;DHT22;7529;48.170;17.138;2022-07-29T00:37:09;20.90;47.00
14875;DHT22;7529;48.170;17.138;2022-07-29T00:41:21;20.80;47.20
14875;DHT22;7529;48.170;17.138;2022-07-29T00:45:33;20.80;47.40
14875;DHT22;7529;48.170;17.138;2022-07-29T00:49:44;20.70;47.40
14875;DHT22;7529;48.170;17.138;2022-07-29T00:53:56;20.70;47.50
14875;DHT22;7529;48.170;17.138;2022-07-29T00:58:08;20.70;47.50
14875;DHT22;7529;48.170;17.138;2022-07-29T01:02:20;20.70;47.50
14875;DHT22;7529;48.170;17.138;2022-07-29T01:06:31;20.70;47.70
14875;DHT22;7529;48.170;17.138;2022-07-29T01:10:45;20.60;47.70
14875;DHT22;7529;48.170;17.138;2022-07-29T01:15:02;20.70;47.80
14875;DHT22;7529;48.170;17.138;2022-07-29T01:33:43;20.60;48.30
14875;DHT22;7529;48.170;17.138;2022-07-29T01:42:44;20.50;48.10
14875;DHT22;7529;48.170;17.138;2022-07-29T01:47:01;20.50;48.60
14875;DHT22;7529;48.170;17.138;2022-07-29T01:51:25;20.40;48.40
14875;DHT22;7529;48.170;17.138;2022-07-29T01:55:44;20.40;48.70
14875;DHT22;7529;48.170;17.138;2022-07-29T01:59:57;20.40;48.50
14875;DHT22;7529;48.170;17.138;2022-07-29T02:04:11;20.50;48.60
14875;DHT22;7529;48.170;17.138;2022-07-29T02:08:24;20.40;48.60
14875;DHT22;7529;48.170;17.138;2022-07-29T02:12:37;20.40;48.80
14875;DHT22;7529;48.170;17.138;2022-07-29T02:16:52;20.40;48.70
14875;DHT22;7529;48.170;17.138;2022-07-29T02:21:05;20.50;48.80
14875;DHT22;7529;48.170;17.138;2022-07-29T02:25:17;20.30;48.90
14875;DHT22;7529;48.170;17.138;2022-07-29T02:29:30;20.30;49.00
14875;DHT22;7529;48.170;17.138;2022-07-29T02:33:43;20.30;49.10
14875;DHT22;7529;48.170;17.138;2022-07-29T02:37:55;20.30;49.10
14875;DHT22;7529;48.170;17.138;2022-07-29T02:42:26;20.20;49.20
14875;DHT22;7529;48.170;17.138;2022-07-29T02:46:59;20.30;49.20
14875;DHT22;7529;48.170;17.138;2022-07-29T02:51:33;20.30;49.30
14875;DHT22;7529;48.170;17.138;2022-07-29T02:55:58;20.30;49.60
14875;DHT22;7529;48.170;17.138;2022-07-29T03:00:11;20.30;49.40
14875;DHT22;7529;48.170;17.138;2022-07-29T03:04:24;20.20;49.40
14875;DHT22;7529;48.170;17.138;2022-07-29T03:08:37;20.20;49.50
14875;DHT22;7529;48.170;17.138;2022-07-29T03:12:48;20.20;49.60
14875;DHT22;7529;48.170;17.138;2022-07-29T03:17:03;20.20;49.70
14875;DHT22;7529;48.170;17.138;2022-07-29T03:21:15;20.20;49.70
14875;DHT22;7529;48.170;17.138;2022-07-29T03:25:26;20.30;49.80
14875;DHT22;7529;48.170;17.138;2022-07-29T03:29:38;20.30;49.80
14875;DHT22;7529;48.170;17.138;2022-07-29T03:33:49;20.30;49.90
14875;DHT22;7529;48.170;17.138;2022-07-29T03:38:01;20.30;50.00
14875;DHT22;7529;48.170;17.138;2022-07-29T03:42:15;20.20;50.10
14875;DHT22;7529;48.170;17.138;2022-07-29T03:46:28;20.30;50.20
14875;DHT22;7529;48.170;17.138;2022-07-29T03:50:40;20.30;50.20
14875;DHT22;7529;48.170;17.138;2022-07-29T03:54:52;20.40;50.20
14875;DHT22;7529;48.170;17.138;2022-07-29T03:59:04;20.50;50.30
14875;DHT22;7529;48.170;17.138;2022-07-29T04:03:16;20.40;50.40
14875;DHT22;7529;48.170;17.138;2022-07-29T04:07:28;20.40;50.50
14875;DHT22;7529;48.170;17.138;2022-07-29T04:11:41;20.50;50.50
14875;DHT22;7529;48.170;17.138;2022-07-29T04:15:52;20.60;50.70
14875;DHT22;7529;48.170;17.138;2022-07-29T04:20:06;20.60;50.70
14875;DHT22;7529;48.170;17.138;2022-07-29T04:24:18;20.70;50.70
14875;DHT22;7529;48.170;17.138;2022-07-29T04:28:29;20.80;50.70
14875;DHT22;7529;48.170;17.138;2022-07-29T04:32:41;20.90;50.70
14875;DHT22;7529;48.170;17.138;2022-07-29T04:36:52;21.60;50.60
14875;DHT22;7529;48.170;17.138;2022-07-29T04:41:04;22.70;50.20
14875;DHT22;7529;48.170;17.138;2022-07-29T04:45:17;23.60;49.60
14875;DHT22;7529;48.170;17.138;2022-07-29T04:49:29;24.30;49.00
14875;DHT22;7529;48.170;17.138;2022-07-29T04:53:40;24.90;48.60
14875;DHT22;7529;48.170;17.138;2022-07-29T04:57:52;25.10;48.40
14875;DHT22;7529;48.170;17.138;2022-07-29T05:02:03;26.10;47.90
14875;DHT22;7529;48.170;17.138;2022-07-29T05:06:15;26.40;47.40
14875;DHT22;7529;48.170;17.138;2022-07-29T05:10:26;25.40;47.40
14875;DHT22;7529;48.170;17.138;2022-07-29T05:14:38;24.80;47.70
14875;DHT22;7529;48.170;17.138;2022-07-29T05:18:49;24.30;47.90
14875;DHT22;7529;48.170;17.138;2022-07-29T05:23:01;24.00;48.10
14875;DHT22;7529;48.170;17.138;2022-07-29T05:27:13;23.80;48.30
14875;DHT22;7529;48.170;17.138;2022-07-29T05:31:25;23.70;48.40
14875;DHT22;7529;48.170;17.138;2022-07-29T05:35:36;23.60;48.50
14875;DHT22;7529;48.170;17.138;2022-07-29T05:39:48;23.60;48.60
14875;DHT22;7529;48.170;17.138;2022-07-29T05:43:59;23.60;48.60
14875;DHT22;7529;48.170;17.138;2022-07-29T05:48:11;23.60;48.70
14875;DHT22;7529;48.170;17.138;2022-07-29T05:52:23;23.70;48.70
14875;DHT22;7529;48.170;17.138;2022-07-29T05:56:36;23.70;48.70
14875;DHT22;7529;48.170;17.138;2022-07-29T06:00:48;23.80;48.80
14875;DHT22;7529;48.170;17.138;2022-07-29T06:05:00;23.80;48.90
14875;DHT22;7529;48.170;17.138;2022-07-29T06:09:14;23.90;48.80
14875;DHT22;7529;48.170;17.138;2022-07-29T06:13:26;24.10;48.70
14875;DHT22;7529;48.170;17.138;2022-07-29T06:17:37;24.20;48.60
14875;DHT22;7529;48.170;17.138;2022-07-29T06:21:49;24.30;48.60
14875;DHT22;7529;48.170;17.138;2022-07-29T06:26:00;24.50;48.50
14875;DHT22;7529;48.170;17.138;2022-07-29T06:30:12;24.60;48.30
14875;DHT22;7529;48.170;17.138;2022-07-29T06:34:24;24.70;48.20
14875;DHT22;7529;48.170;17.138;2022-07-29T06:38:35;25.00;48.10
14875;DHT22;7529;48.170;17.138;2022-07-29T06:42:49;25.10;48.00
14875;DHT22;7529;48.170;17.138;2022-07-29T06:47:01;25.40;47.90
14875;DHT22;7529;48.170;17.138;2022-07-29T06:51:13;25.80;47.70
14875;DHT22;7529;48.170;17.138;2022-07-29T06:55:25;26.20;47.40
14875;DHT22;7529;48.170;17.138;2022-07-29T06:59:36;26.50;47.30
14875;DHT22;7529;48.170;17.138;2022-07-29T07:03:48;26.60;47.00
14875;DHT22;7529;48.170;17.138;2022-07-29T07:07:59;26.90;46.80
14875;DHT22;7529;48.170;17.138;2022-07-29T07:12:11;27.20;46.60
14875;DHT22;7529;48.170;17.138;2022-07-29T07:16:22;27.40;46.40
14875;DHT22;7529;48.170;17.138;2022-07-29T07:20:35;27.70;46.10
14875;DHT22;7529;48.170;17.138;2022-07-29T07:24:46;27.90;45.80
14875;DHT22;7529;48.170;17.138;2022-07-29T07:28:58;28.20;45.60
14875;DHT22;7529;48.170;17.138;2022-07-29T07:33:11;28.70;45.30
14875;DHT22;7529;48.170;17.138;2022-07-29T07:37:22;29.10;44.90
14875;DHT22;7529;48.170;17.138;2022-07-29T07:41:35;29.40;44.80
14875;DHT22;7529;48.170;17.138;2022-07-29T07:45:47;29.80;44.40
14875;DHT22;7529;48.170;17.138;2022-07-29T07:50:00;30.50;43.90
14875;DHT22;7529;48.170;17.138;2022-07-29T07:54:11;31.20;43.40
14875;DHT22;7529;48.170;17.138;2022-07-29T07:58:23;31.50;43.10
14875;DHT22;7529;48.170;17.138;2022-07-29T08:02:34;32.30;42.60
14875;DHT22;7529;48.170;17.138;2022-07-29T08:06:46;32.80;41.90
14875;DHT22;7529;48.170;17.138;2022-07-29T08:10:58;33.40;41.60
14875;DHT22;7529;48.170;17.138;2022-07-29T08:15:09;33.90;40.90
14875;DHT22;7529;48.170;17.138;2022-07-29T08:19:21;34.50;40.40
14875;DHT22;7529;48.170;17.138;2022-07-29T08:23:33;34.80;40.20
14875;DHT22;7529;48.170;17.138;2022-07-29T08:27:53;34.70;39.80
14875;DHT22;7529;48.170;17.138;2022-07-29T08:32:04;34.70;39.70
14875;DHT22;7529;48.170;17.138;2022-07-29T08:36:16;34.80;39.40
14875;DHT22;7529;48.170;17.138;2022-07-29T08:40:30;35.10;39.20
14875;DHT22;7529;48.170;17.138;2022-07-29T08:44:44;35.80;38.70
14875;DHT22;7529;48.170;17.138;2022-07-29T08:48:56;36.00;38.30
14875;DHT22;7529;48.170;17.138;2022-07-29T08:53:14;36.00;38.30
14875;DHT22;7529;48.170;17.138;2022-07-29T08:57:27;37.90;37.10
14875;DHT22;7529;48.170;17.138;2022-07-29T09:01:39;40.70;35.70
14875;DHT22;7529;48.170;17.138;2022-07-29T09:35:25;43.70;34.00
14875;DHT22;7529;48.170;17.138;2022-07-29T09:39:39;44.60;29.60
14875;DHT22;7529;48.170;17.138;2022-07-29T09:43:58;41.90;30.20
14875;DHT22;7529;48.170;17.138;2022-07-29T09:48:33;39.70;31.00
14875;DHT22;7529;48.170;17.138;2022-07-29T09:52:49;38.40;31.40
14875;DHT22;7529;48.170;17.138;2022-07-29T09:57:07;37.20;31.70
14875;DHT22;7529;48.170;17.138;2022-07-29T10:01:28;36.90;31.90
14875;DHT22;7529;48.170;17.138;2022-07-29T10:05:39;37.60;31.50
14875;DHT22;7529;48.170;17.138;2022-07-29T10:09:54;37.50;31.30
14875;DHT22;7529;48.170;17.138;2022-07-29T10:14:07;41.50;29.60
14875;DHT22;7529;48.170;17.138;2022-07-29T10:18:19;41.90;29.60
14875;DHT22;7529;48.170;17.138;2022-07-29T10:22:30;44.10;28.50
14875;DHT22;7529;48.170;17.138;2022-07-29T10:26:42;43.50;28.80
14875;DHT22;7529;48.170;17.138;2022-07-29T10:35:19;43.40;28.90
14875;DHT22;7529;48.170;17.138;2022-07-29T11:53:33;43.30;28.70
14875;DHT22;7529;48.170;17.138;2022-07-29T11:57:53;43.50;25.00
14875;DHT22;7529;48.170;17.138;2022-07-29T12:02:08;43.10;24.90
14875;DHT22;7529;48.170;17.138;2022-07-29T12:06:19;43.50;24.70
14875;DHT22;7529;48.170;17.138;2022-07-29T12:14:43;47.70;24.30
14875;DHT22;7529;48.170;17.138;2022-07-29T12:19:01;47.10;23.50
14875;DHT22;7529;48.170;17.138;2022-07-29T12:23:14;43.60;24.30
14875;DHT22;7529;48.170;17.138;2022-07-29T12:27:27;42.10;24.90
14875;DHT22;7529;48.170;17.138;2022-07-29T12:31:39;42.80;24.80
14875;DHT22;7529;48.170;17.138;2022-07-29T12:35:56;45.30;24.20
14875;DHT22;7529;48.170;17.138;2022-07-29T12:40:11;44.00;24.50
14875;DHT22;7529;48.170;17.138;2022-07-29T12:44:23;44.10;24.60
14875;DHT22;7529;48.170;17.138;2022-07-29T12:48:41;43.70;24.70
14875;DHT22;7529;48.170;17.138;2022-07-29T12:52:53;41.80;25.50
14875;DHT22;7529;48.170;17.138;2022-07-29T12:57:05;40.30;25.70
14875;DHT22;7529;48.170;17.138;2022-07-29T13:01:18;38.80;26.10
14875;DHT22;7529;48.170;17.138;2022-07-29T13:05:43;38.00;26.50
14875;DHT22;7529;48.170;17.138;2022-07-29T13:10:17;37.70;26.70
14875;DHT22;7529;48.170;17.138;2022-07-29T13:14:47;37.50;26.90
14875;DHT22;7529;48.170;17.138;2022-07-29T13:19:19;37.40;27.00
14875;DHT22;7529;48.170;17.138;2022-07-29T13:23:30;37.70;27.00
14875;DHT22;7529;48.170;17.138;2022-07-29T13:27:42;38.80;26.60
14875;DHT22;7529;48.170;17.138;2022-07-29T13:31:56;41.00;26.10
14875;DHT22;7529;48.170;17.138;2022-07-29T13:36:08;41.00;26.00
14875;DHT22;7529;48.170;17.138;2022-07-29T13:40:19;40.70;26.10
14875;DHT22;7529;48.170;17.138;2022-07-29T13:44:31;40.80;26.20
14875;DHT22;7529;48.170;17.138;2022-07-29T13:48:43;43.40;25.30
14875;DHT22;7529;48.170;17.138;2022-07-29T13:52:54;43.60;25.10
14875;DHT22;7529;48.170;17.138;2022-07-29T13:57:06;44.80;25.00
14875;DHT22;7529;48.170;17.138;2022-07-29T14:01:18;45.00;24.90
14875;DHT22;7529;48.170;17.138;2022-07-29T14:05:30;43.40;25.10
14875;DHT22;7529;48.170;17.138;2022-07-29T14:09:41;41.30;25.40
14875;DHT22;7529;48.170;17.138;2022-07-29T14:13:53;39.50;26.10
14875;DHT22;7529;48.170;17.138;2022-07-29T14:18:05;38.10;26.50
14875;DHT22;7529;48.170;17.138;2022-07-29T14:22:16;37.20;26.90
14875;DHT22;7529;48.170;17.138;2022-07-29T14:26:30;36.50;27.10
14875;DHT22;7529;48.170;17.138;2022-07-29T14:30:41;36.00;27.30
14875;DHT22;7529;48.170;17.138;2022-07-29T14:34:53;35.70;27.50
14875;DHT22;7529;48.170;17.138;2022-07-29T14:39:05;35.30;27.70
14875;DHT22;7529;48.170;17.138;2022-07-29T14:43:16;35.20;27.80
14875;DHT22;7529;48.170;17.138;2022-07-29T14:47:28;35.40;27.80
14875;DHT22;7529;48.170;17.138;2022-07-29T14:51:40;35.10;28.00
14875;DHT22;7529;48.170;17.138;2022-07-29T14:55:51;35.00;28.20
14875;DHT22;7529;48.170;17.138;2022-07-29T15:00:04;34.70;28.20
14875;DHT22;7529;48.170;17.138;2022-07-29T15:04:17;34.30;28.50
14875;DHT22;7529;48.170;17.138;2022-07-29T15:08:29;33.80;28.80
14875;DHT22;7529;48.170;17.138;2022-07-29T15:12:41;33.10;29.30
14875;DHT22;7529;48.170;17.138;2022-07-29T15:16:53;32.30;29.90
14875;DHT22;7529;48.170;17.138;2022-07-29T15:21:05;31.70;31.20
14875;DHT22;7529;48.170;17.138;2022-07-29T15:25:18;31.00;32.90
14875;DHT22;7529;48.170;17.138;2022-07-29T15:29:29;30.30;33.90
14875;DHT22;7529;48.170;17.138;2022-07-29T15:33:41;29.90;33.80
14875;DHT22;7529;48.170;17.138;2022-07-29T15:37:52;29.20;35.10
14875;DHT22;7529;48.170;17.138;2022-07-29T15:42:04;28.60;36.20
14875;DHT22;7529;48.170;17.138;2022-07-29T15:46:17;28.20;36.40
14875;DHT22;7529;48.170;17.138;2022-07-29T15:50:48;28.00;37.20
14875;DHT22;7529;48.170;17.138;2022-07-29T15:54:59;27.90;37.70
14875;DHT22;7529;48.170;17.138;2022-07-29T15:59:11;27.70;38.60
14875;DHT22;7529;48.170;17.138;2022-07-29T16:03:22;27.50;39.50
14875;DHT22;7529;48.170;17.138;2022-07-29T16:07:35;27.20;40.40
14875;DHT22;7529;48.170;17.138;2022-07-29T16:11:46;27.20;40.80
14875;DHT22;7529;48.170;17.138;2022-07-29T16:16:00;27.40;41.10
14875;DHT22;7529;48.170;17.138;2022-07-29T16:20:12;27.50;41.00
14875;DHT22;7529;48.170;17.138;2022-07-29T16:24:24;27.70;41.60
14875;DHT22;7529;48.170;17.138;2022-07-29T16:28:39;28.20;41.40
14875;DHT22;7529;48.170;17.138;2022-07-29T16:32:52;28.60;41.40
14875;DHT22;7529;48.170;17.138;2022-07-29T16:37:03;28.50;41.80
14875;DHT22;7529;48.170;17.138;2022-07-29T16:41:16;28.50;42.10
14875;DHT22;7529;48.170;17.138;2022-07-29T16:45:27;28.70;42.40
14875;DHT22;7529;48.170;17.138;2022-07-29T16:49:39;29.10;42.20
14875;DHT22;7529;48.170;17.138;2022-07-29T16:53:51;29.40;42.20
14875;DHT22;7529;48.170;17.138;2022-07-29T16:58:02;29.90;41.90
14875;DHT22;7529;48.170;17.138;2022-07-29T17:02:14;29.70;42.20
14875;DHT22;7529;48.170;17.138;2022-07-29T17:06:25;29.20;42.50
14875;DHT22;7529;48.170;17.138;2022-07-29T17:10:37;28.90;42.70
14875;DHT22;7529;48.170;17.138;2022-07-29T17:14:48;29.20;42.60
14875;DHT22;7529;48.170;17.138;2022-07-29T17:19:00;29.50;42.20
14875;DHT22;7529;48.170;17.138;2022-07-29T17:23:12;29.20;42.30
14875;DHT22;7529;48.170;17.138;2022-07-29T17:27:23;28.90;42.70
14875;DHT22;7529;48.170;17.138;2022-07-29T17:31:35;29.00;42.60
14875;DHT22;7529;48.170;17.138;2022-07-29T17:35:47;28.70;42.80
14875;DHT22;7529;48.170;17.138;2022-07-29T17:40:18;28.50;43.10
14875;DHT22;7529;48.170;17.138;2022-07-29T17:44:29;28.50;43.00
14875;DHT22;7529;48.170;17.138;2022-07-29T17:48:41;28.40;43.10
14875;DHT22;7529;48.170;17.138;2022-07-29T17:52:52;28.20;43.30
14875;DHT22;7529;48.170;17.138;2022-07-29T17:57:04;27.90;43.60
14875;DHT22;7529;48.170;17.138;2022-07-29T18:01:16;27.60;43.80
14875;DHT22;7529;48.170;17.138;2022-07-29T18:05:27;27.50;44.00
14875;DHT22;7529;48.170;17.138;2022-07-29T18:09:39;27.40;44.10
14875;DHT22;7529;48.170;17.138;2022-07-29T18:13:51;27.30;44.20
14875;DHT22;7529;48.170;17.138;2022-07-29T18:18:02;27.20;44.40
14875;DHT22;7529;48.170;17.138;2022-07-29T18:22:14;27.10;44.50
14875;DHT22;7529;48.170;17.138;2022-07-29T18:26:25;26.80;44.70
14875;DHT22;7529;48.170;17.138;2022-07-29T18:30:37;26.60;45.00
14875;DHT22;7529;48.170;17.138;2022-07-29T18:34:48;26.50;45.20
14875;DHT22;7529;48.170;17.138;2022-07-29T18:39:00;26.30;45.30
14875;DHT22;7529;48.170;17.138;2022-07-29T18:43:12;26.00;45.80
14875;DHT22;7529;48.170;17.138;2022-07-29T18:47:24;25.80;46.00
14875;DHT22;7529;48.170;17.138;2022-07-29T18:51:35;25.50;46.30
14875;DHT22;7529;48.170;17.138;2022-07-29T18:55:47;25.40;46.70
14875;DHT22;7529;48.170;17.138;2022-07-29T18:59:58;25.20;47.10
14875;DHT22;7529;48.170;17.138;2022-07-29T19:04:10;25.00;47.60
14875;DHT22;7529;48.170;17.138;2022-07-29T19:08:21;24.80;48.10
14875;DHT22;7529;48.170;17.138;2022-07-29T19:12:33;24.50;48.70
14875;DHT22;7529;48.170;17.138;2022-07-29T19:16:44;24.30;49.80
14875;DHT22;7529;48.170;17.138;2022-07-29T19:20:56;24.20;49.80
14875;DHT22;7529;48.170;17.138;2022-07-29T19:25:07;24.00;50.10
14875;DHT22;7529;48.170;17.138;2022-07-29T19:29:20;23.90;50.40
14875;DHT22;7529;48.170;17.138;2022-07-29T19:33:32;23.90;50.50
14875;DHT22;7529;48.170;17.138;2022-07-29T19:37:45;23.80;50.70
14875;DHT22;7529;48.170;17.138;2022-07-29T19:41:57;23.60;51.00
14875;DHT22;7529;48.170;17.138;2022-07-29T19:46:09;23.50;51.30
14875;DHT22;7529;48.170;17.138;2022-07-29T19:50:24;23.50;51.60
14875;DHT22;7529;48.170;17.138;2022-07-29T19:54:36;23.50;51.80
14875;DHT22;7529;48.170;17.138;2022-07-29T19:58:47;23.50;51.90
14875;DHT22;7529;48.170;17.138;2022-07-29T20:02:59;23.60;52.00
14875;DHT22;7529;48.170;17.138;2022-07-29T20:07:10;23.70;52.00
14875;DHT22;7529;48.170;17.138;2022-07-29T20:11:23;23.70;52.00
14875;DHT22;7529;48.170;17.138;2022-07-29T20:15:34;23.70;52.00
14875;DHT22;7529;48.170;17.138;2022-07-29T20:19:46;23.70;52.20
14875;DHT22;7529;48.170;17.138;2022-07-29T20:24:01;23.60;52.40
14875;DHT22;7529;48.170;17.138;2022-07-29T20:28:14;23.60;52.60
14875;DHT22;7529;48.170;17.138;2022-07-29T20:32:26;23.60;52.50
14875;DHT22;7529;48.170;17.138;2022-07-29T20:36:37;23.70;53.00
14875;DHT22;7529;48.170;17.138;2022-07-29T20:40:49;23.60;52.60
14875;DHT22;7529;48.170;17.138;2022-07-29T20:45:01;23.50;52.80
14875;DHT22;7529;48.170;17.138;2022-07-29T20:49:13;23.40;53.10
14875;DHT22;7529;48.170;17.138;2022-07-29T20:53:25;23.30;53.20
14875;DHT22;7529;48.170;17.138;2022-07-29T20:57:37;23.30;53.30
14875;DHT22;7529;48.170;17.138;2022-07-29T21:01:48;23.30;53.40
14875;DHT22;7529;48.170;17.138;2022-07-29T21:06:00;23.30;53.40
14875;DHT22;7529;48.170;17.138;2022-07-29T21:10:12;23.30;53.30
14875;DHT22;7529;48.170;17.138;2022-07-29T21:14:24;23.40;53.30
14875;DHT22;7529;48.170;17.138;2022-07-29T21:18:51;23.40;53.20
14875;DHT22;7529;48.170;17.138;2022-07-29T21:23:02;23.40;53.20
14875;DHT22;7529;48.170;17.138;2022-07-29T21:27:14;23.50;53.20
14875;DHT22;7529;48.170;17.138;2022-07-29T21:31:44;23.60;53.20
14875;DHT22;7529;48.170;17.138;2022-07-29T21:35:56;23.50;53.20
14875;DHT22;7529;48.170;17.138;2022-07-29T21:40:08;23.50;53.30
14875;DHT22;7529;48.170;17.138;2022-07-29T21:44:20;23.40;53.40
14875;DHT22;7529;48.170;17.138;2022-07-29T21:48:31;23.40;53.60
14875;DHT22;7529;48.170;17.138;2022-07-29T21:52:43;23.40;53.70
14875;DHT22;7529;48.170;17.138;2022-07-29T21:56:54;23.30;53.80
14875;DHT22;7529;48.170;17.138;2022-07-29T22:01:06;23.20;54.00
14875;DHT22;7529;48.170;17.138;2022-07-29T22:05:17;23.20;54.20
14875;DHT22;7529;48.170;17.138;2022-07-29T22:09:29;23.10;54.30
14875;DHT22;7529;48.170;17.138;2022-07-29T22:13:40;23.10;54.50
14875;DHT22;7529;48.170;17.138;2022-07-29T22:17:52;23.00;54.70
14875;DHT22;7529;48.170;17.138;2022-07-29T22:22:04;22.90;54.90
14875;DHT22;7529;48.170;17.138;2022-07-29T22:26:15;22.80;55.10
14875;DHT22;7529;48.170;17.138;2022-07-29T22:30:27;22.60;55.30
14875;DHT22;7529;48.170;17.138;2022-07-29T22:34:38;22.60;55.40
14875;DHT22;7529;48.170;17.138;2022-07-29T22:38:49;22.60;55.50
14875;DHT22;7529;48.170;17.138;2022-07-29T22:43:01;22.50;55.60
14875;DHT22;7529;48.170;17.138;2022-07-29T22:47:12;22.50;55.70
14875;DHT22;7529;48.170;17.138;2022-07-29T22:51:24;22.50;55.60
14875;DHT22;7529;48.170;17.138;2022-07-29T22:55:36;22.60;55.60
14875;DHT22;7529;48.170;17.138;2022-07-29T22:59:47;22.60;55.60
14875;DHT22;7529;48.170;17.138;2022-07-29T23:03:59;22.70;55.70
14875;DHT22;7529;48.170;17.138;2022-07-29T23:08:11;22.60;55.80
14875;DHT22;7529;48.170;17.138;2022-07-29T23:12:22;22.60;55.90
14875;DHT22;7529;48.170;17.138;2022-07-29T23:16:34;22.40;56.00
14875;DHT22;7529;48.170;17.138;2022-07-29T23:20:46;22.30;56.20
14875;DHT22;7529;48.170;17.138;2022-07-29T23:24:57;22.20;56.50
14875;DHT22;7529;48.170;17.138;2022-07-29T23:29:09;22.10;57.20
14875;DHT22;7529;48.170;17.138;2022-07-29T23:33:20;22.00;56.90
14875;DHT22;7529;48.170;17.138;2022-07-29T23:37:32;21.90;57.10
14875;DHT22;7529;48.170;17.138;2022-07-29T23:41:44;21.80;57.80
14875;DHT22;7529;48.170;17.138;2022-07-29T23:45:55;21.70;57.30
14875;DHT22;7529;48.170;17.138;2022-07-29T23:50:08;21.70;57.50
14875;DHT22;7529;48.170;17.138;2022-07-29T23:54:25;21.60;57.60
14875;DHT22;7529;48.170;17.138;2022-07-29T23:58:36;21.50;57.70
